sensor_id;sensor_type;location;lat;lon;timestamp;P1;durP1;ratioP1;P2;durP2;ratioP2
73452;SDS011;61687;56.232;43.854;2022-08-01T00:00:44;19.03;;;10.13;;
73452;SDS011;61687;56.232;43.854;2022-08-01T00:03:10;20.33;;;10.02;;
73452;SDS011;61687;56.232;43.854;2022-08-01T00:05:36;18.38;;;10.05;;
73452;SDS011;61687;56.232;43.854;2022-08-01T00:08:02;16.85;;;10.38;;
73452;SDS011;61687;56.232;43.854;2022-08-01T00:10:28;17.80;;;10.83;;
73452;SDS011;61687;56.232;43.854;2022-08-01T00:12:54;21.75;;;10.07;;
73452;SDS011;61687;56.232;43.854;2022-08-01T00:15:20;18.40;;;10.25;;
73452;SDS011;61687;56.232;43.854;2022-08-01T00:17:46;18.73;;;11.40;;
73452;SDS011;61687;56.232;43.854;2022-08-01T00:20:12;19.03;;;10.37;;
73452;SDS011;61687;56.232;43.854;2022-08-01T00:22:39;21.23;;;11.32;;
73452;SDS011;61687;56.232;43.854;2022-08-01T00:25:05;19.63;;;10.25;;
73452;SDS011;61687;56.232;43.854;2022-08-01T00:27:32;19.38;;;11.52;;
73452;SDS011;61687;56.232;43.854;2022-08-01T00:29:58;22.00;;;12.23;;
73452;SDS011;61687;56.232;43.854;2022-08-01T00:32:24;19.37;;;11.90;;
73452;SDS011;61687;56.232;43.854;2022-08-01T00:34:50;20.63;;;12.20;;
73452;SDS011;61687;56.232;43.854;2022-08-01T00:37:16;20.33;;;11.65;;
73452;SDS011;61687;56.232;43.854;2022-08-01T00:39:43;18.73;;;11.20;;
73452;SDS011;61687;56.232;43.854;2022-08-01T00:42:10;20.67;;;11.20;;
73452;SDS011;61687;56.232;43.854;2022-08-01T00:44:37;22.48;;;11.55;;
73452;SDS011;61687;56.232;43.854;2022-08-01T00:47:04;20.63;;;12.43;;
73452;SDS011;61687;56.232;43.854;2022-08-01T00:49:30;19.85;;;11.90;;
73452;SDS011;61687;56.232;43.854;2022-08-01T00:51:56;21.92;;;11.57;;
73452;SDS011;61687;56.232;43.854;2022-08-01T00:54:24;21.93;;;11.97;;
73452;SDS011;61687;56.232;43.854;2022-08-01T00:56:51;24.67;;;11.90;;
73452;SDS011;61687;56.232;43.854;2022-08-01T00:59:18;21.73;;;12.13;;
73452;SDS011;61687;56.232;43.854;2022-08-01T01:01:46;22.27;;;12.32;;
73452;SDS011;61687;56.232;43.854;2022-08-01T01:04:13;21.48;;;12.88;;
73452;SDS011;61687;56.232;43.854;2022-08-01T01:12:01;23.50;;;11.60;;
73452;SDS011;61687;56.232;43.854;2022-08-01T01:14:51;21.35;;;12.15;;
73452;SDS011;61687;56.232;43.854;2022-08-01T01:17:24;20.00;;;11.88;;
73452;SDS011;61687;56.232;43.854;2022-08-01T01:19:57;20.93;;;11.97;;
73452;SDS011;61687;56.232;43.854;2022-08-01T01:28:05;20.65;;;12.20;;
73452;SDS011;61687;56.232;43.854;2022-08-01T01:30:53;25.70;;;12.57;;
73452;SDS011;61687;56.232;43.854;2022-08-01T01:33:22;19.97;;;11.70;;
73452;SDS011;61687;56.232;43.854;2022-08-01T01:35:51;21.67;;;12.48;;
73452;SDS011;61687;56.232;43.854;2022-08-01T01:38:22;22.15;;;12.73;;
73452;SDS011;61687;56.232;43.854;2022-08-01T01:40:52;19.77;;;11.48;;
73452;SDS011;61687;56.232;43.854;2022-08-01T01:43:20;20.80;;;12.13;;
73452;SDS011;61687;56.232;43.854;2022-08-01T01:45:48;24.43;;;12.17;;
73452;SDS011;61687;56.232;43.854;2022-08-01T01:48:18;19.92;;;11.75;;
73452;SDS011;61687;56.232;43.854;2022-08-01T01:50:47;22.02;;;11.55;;
73452;SDS011;61687;56.232;43.854;2022-08-01T01:53:15;19.52;;;12.05;;
73452;SDS011;61687;56.232;43.854;2022-08-01T01:55:43;20.88;;;11.35;;
73452;SDS011;61687;56.232;43.854;2022-08-01T01:58:13;20.23;;;11.70;;
73452;SDS011;61687;56.232;43.854;2022-08-01T02:00:40;19.73;;;11.43;;
73452;SDS011;61687;56.232;43.854;2022-08-01T02:03:09;19.92;;;12.18;;
73452;SDS011;61687;56.232;43.854;2022-08-01T02:05:36;18.40;;;11.68;;
73452;SDS011;61687;56.232;43.854;2022-08-01T02:08:04;21.10;;;12.05;;
73452;SDS011;61687;56.232;43.854;2022-08-01T02:10:32;21.97;;;11.13;;
73452;SDS011;61687;56.232;43.854;2022-08-01T02:13:01;23.25;;;11.93;;
73452;SDS011;61687;56.232;43.854;2022-08-01T02:15:29;21.85;;;11.95;;
73452;SDS011;61687;56.232;43.854;2022-08-01T02:17:57;18.90;;;11.25;;
73452;SDS011;61687;56.232;43.854;2022-08-01T02:20:24;22.73;;;11.65;;
73452;SDS011;61687;56.232;43.854;2022-08-01T02:22:53;19.40;;;11.20;;
73452;SDS011;61687;56.232;43.854;2022-08-01T02:25:24;18.20;;;10.70;;
73452;SDS011;61687;56.232;43.854;2022-08-01T02:28:01;18.48;;;11.73;;
73452;SDS011;61687;56.232;43.854;2022-08-01T02:30:35;24.45;;;11.35;;
73452;SDS011;61687;56.232;43.854;2022-08-01T02:33:17;21.83;;;11.98;;
73452;SDS011;61687;56.232;43.854;2022-08-01T02:35:53;21.30;;;11.90;;
73452;SDS011;61687;56.232;43.854;2022-08-01T02:38:23;24.70;;;11.82;;
73452;SDS011;61687;56.232;43.854;2022-08-01T02:40:52;22.75;;;11.90;;
73452;SDS011;61687;56.232;43.854;2022-08-01T02:43:23;24.23;;;11.60;;
73452;SDS011;61687;56.232;43.854;2022-08-01T02:45:53;18.65;;;11.43;;
73452;SDS011;61687;56.232;43.854;2022-08-01T02:48:23;22.70;;;10.87;;
73452;SDS011;61687;56.232;43.854;2022-08-01T02:50:51;18.20;;;10.88;;
73452;SDS011;61687;56.232;43.854;2022-08-01T02:53:20;20.38;;;11.98;;
73452;SDS011;61687;56.232;43.854;2022-08-01T02:55:49;18.88;;;10.77;;
73452;SDS011;61687;56.232;43.854;2022-08-01T02:58:18;24.60;;;11.60;;
73452;SDS011;61687;56.232;43.854;2022-08-01T03:00:45;19.57;;;11.03;;
73452;SDS011;61687;56.232;43.854;2022-08-01T03:03:13;19.17;;;10.70;;
73452;SDS011;61687;56.232;43.854;2022-08-01T03:05:39;22.55;;;10.77;;
73452;SDS011;61687;56.232;43.854;2022-08-01T03:08:08;20.48;;;10.02;;
73452;SDS011;61687;56.232;43.854;2022-08-01T03:10:36;16.95;;;10.00;;
73452;SDS011;61687;56.232;43.854;2022-08-01T03:13:06;22.33;;;10.30;;
73452;SDS011;61687;56.232;43.854;2022-08-01T03:15:34;20.20;;;10.25;;
73452;SDS011;61687;56.232;43.854;2022-08-01T03:18:03;18.00;;;9.73;;
73452;SDS011;61687;56.232;43.854;2022-08-01T03:20:32;19.83;;;9.73;;
73452;SDS011;61687;56.232;43.854;2022-08-01T03:23:00;25.02;;;10.77;;
73452;SDS011;61687;56.232;43.854;2022-08-01T03:25:28;22.20;;;9.60;;
73452;SDS011;61687;56.232;43.854;2022-08-01T03:27:58;25.38;;;9.88;;
73452;SDS011;61687;56.232;43.854;2022-08-01T03:30:27;25.98;;;10.90;;
73452;SDS011;61687;56.232;43.854;2022-08-01T03:32:55;14.68;;;10.20;;
73452;SDS011;61687;56.232;43.854;2022-08-01T03:35:22;18.23;;;10.18;;
73452;SDS011;61687;56.232;43.854;2022-08-01T03:37:52;20.27;;;8.93;;
73452;SDS011;61687;56.232;43.854;2022-08-01T03:40:22;21.73;;;9.63;;
73452;SDS011;61687;56.232;43.854;2022-08-01T03:42:56;18.02;;;9.75;;
73452;SDS011;61687;56.232;43.854;2022-08-01T03:45:31;18.98;;;9.10;;
73452;SDS011;61687;56.232;43.854;2022-08-01T03:48:03;21.65;;;9.05;;
73452;SDS011;61687;56.232;43.854;2022-08-01T03:50:34;21.50;;;8.57;;
73452;SDS011;61687;56.232;43.854;2022-08-01T03:53:02;20.05;;;9.13;;
73452;SDS011;61687;56.232;43.854;2022-08-01T03:55:31;15.25;;;9.52;;
73452;SDS011;61687;56.232;43.854;2022-08-01T03:58:01;17.40;;;9.27;;
73452;SDS011;61687;56.232;43.854;2022-08-01T04:00:30;19.88;;;8.73;;
73452;SDS011;61687;56.232;43.854;2022-08-01T04:02:56;15.93;;;9.27;;
73452;SDS011;61687;56.232;43.854;2022-08-01T04:05:23;17.92;;;9.77;;
73452;SDS011;61687;56.232;43.854;2022-08-01T04:07:50;18.52;;;9.55;;
73452;SDS011;61687;56.232;43.854;2022-08-01T04:10:23;23.30;;;9.45;;
73452;SDS011;61687;56.232;43.854;2022-08-01T04:12:49;17.45;;;8.70;;
73452;SDS011;61687;56.232;43.854;2022-08-01T04:15:16;22.30;;;9.40;;
73452;SDS011;61687;56.232;43.854;2022-08-01T04:17:42;19.33;;;8.60;;
73452;SDS011;61687;56.232;43.854;2022-08-01T04:20:08;19.23;;;9.23;;
73452;SDS011;61687;56.232;43.854;2022-08-01T04:22:34;21.15;;;8.98;;
73452;SDS011;61687;56.232;43.854;2022-08-01T04:25:01;16.27;;;8.30;;
73452;SDS011;61687;56.232;43.854;2022-08-01T04:27:35;20.20;;;8.00;;
73452;SDS011;61687;56.232;43.854;2022-08-01T04:30:04;18.15;;;8.85;;
73452;SDS011;61687;56.232;43.854;2022-08-01T04:32:33;50.80;;;9.57;;
73452;SDS011;61687;56.232;43.854;2022-08-01T04:35:04;16.95;;;7.63;;
73452;SDS011;61687;56.232;43.854;2022-08-01T04:37:35;12.52;;;7.50;;
73452;SDS011;61687;56.232;43.854;2022-08-01T04:40:03;14.77;;;8.23;;
73452;SDS011;61687;56.232;43.854;2022-08-01T04:42:32;16.58;;;7.78;;
73452;SDS011;61687;56.232;43.854;2022-08-01T04:44:58;13.18;;;7.20;;
73452;SDS011;61687;56.232;43.854;2022-08-01T04:47:25;18.05;;;7.78;;
73452;SDS011;61687;56.232;43.854;2022-08-01T04:49:52;16.67;;;7.50;;
73452;SDS011;61687;56.232;43.854;2022-08-01T04:52:19;16.83;;;7.30;;
73452;SDS011;61687;56.232;43.854;2022-08-01T04:54:45;18.48;;;7.15;;
73452;SDS011;61687;56.232;43.854;2022-08-01T04:57:14;17.95;;;7.40;;
73452;SDS011;61687;56.232;43.854;2022-08-01T04:59:41;13.15;;;7.35;;
73452;SDS011;61687;56.232;43.854;2022-08-01T05:02:12;17.20;;;6.13;;
73452;SDS011;61687;56.232;43.854;2022-08-01T05:04:43;13.15;;;6.57;;
73452;SDS011;61687;56.232;43.854;2022-08-01T05:07:10;19.98;;;6.13;;
73452;SDS011;61687;56.232;43.854;2022-08-01T05:09:38;11.93;;;5.80;;
73452;SDS011;61687;56.232;43.854;2022-08-01T05:12:06;21.15;;;5.32;;
73452;SDS011;61687;56.232;43.854;2022-08-01T05:14:33;11.07;;;5.60;;
73452;SDS011;61687;56.232;43.854;2022-08-01T05:17:05;13.50;;;5.60;;
73452;SDS011;61687;56.232;43.854;2022-08-01T05:19:33;12.27;;;5.63;;
73452;SDS011;61687;56.232;43.854;2022-08-01T05:22:01;11.77;;;5.50;;
73452;SDS011;61687;56.232;43.854;2022-08-01T05:24:33;10.07;;;6.32;;
73452;SDS011;61687;56.232;43.854;2022-08-01T05:27:00;15.37;;;5.73;;
73452;SDS011;61687;56.232;43.854;2022-08-01T05:29:27;8.65;;;4.50;;
73452;SDS011;61687;56.232;43.854;2022-08-01T05:31:53;10.70;;;4.05;;
73452;SDS011;61687;56.232;43.854;2022-08-01T05:34:19;9.15;;;3.53;;
73452;SDS011;61687;56.232;43.854;2022-08-01T05:36:46;10.63;;;3.70;;
73452;SDS011;61687;56.232;43.854;2022-08-01T05:39:12;7.77;;;3.50;;
73452;SDS011;61687;56.232;43.854;2022-08-01T05:41:38;8.73;;;4.00;;
73452;SDS011;61687;56.232;43.854;2022-08-01T05:44:05;12.60;;;4.70;;
73452;SDS011;61687;56.232;43.854;2022-08-01T05:46:31;12.88;;;5.28;;
73452;SDS011;61687;56.232;43.854;2022-08-01T05:48:57;13.25;;;5.32;;
73452;SDS011;61687;56.232;43.854;2022-08-01T05:51:23;8.77;;;5.23;;
73452;SDS011;61687;56.232;43.854;2022-08-01T05:53:50;9.90;;;4.47;;
73452;SDS011;61687;56.232;43.854;2022-08-01T05:56:16;12.32;;;4.47;;
73452;SDS011;61687;56.232;43.854;2022-08-01T05:58:43;10.50;;;4.93;;
73452;SDS011;61687;56.232;43.854;2022-08-01T06:01:09;11.30;;;4.30;;
73452;SDS011;61687;56.232;43.854;2022-08-01T06:03:35;7.28;;;3.83;;
73452;SDS011;61687;56.232;43.854;2022-08-01T06:06:01;7.53;;;3.65;;
73452;SDS011;61687;56.232;43.854;2022-08-01T06:08:28;9.00;;;3.20;;
73452;SDS011;61687;56.232;43.854;2022-08-01T06:10:54;10.95;;;3.38;;
73452;SDS011;61687;56.232;43.854;2022-08-01T06:13:20;7.60;;;3.53;;
73452;SDS011;61687;56.232;43.854;2022-08-01T06:15:46;10.80;;;3.55;;
73452;SDS011;61687;56.232;43.854;2022-08-01T06:18:13;8.93;;;4.13;;
73452;SDS011;61687;56.232;43.854;2022-08-01T06:20:39;8.30;;;2.88;;
73452;SDS011;61687;56.232;43.854;2022-08-01T06:23:05;5.57;;;3.38;;
73452;SDS011;61687;56.232;43.854;2022-08-01T06:25:31;6.37;;;2.67;;
73452;SDS011;61687;56.232;43.854;2022-08-01T06:27:58;4.28;;;2.47;;
73452;SDS011;61687;56.232;43.854;2022-08-01T06:30:25;7.03;;;3.08;;
73452;SDS011;61687;56.232;43.854;2022-08-01T06:32:51;3.83;;;2.00;;
73452;SDS011;61687;56.232;43.854;2022-08-01T06:35:17;6.97;;;1.98;;
73452;SDS011;61687;56.232;43.854;2022-08-01T06:37:43;8.13;;;2.20;;
73452;SDS011;61687;56.232;43.854;2022-08-01T06:40:12;5.38;;;2.30;;
73452;SDS011;61687;56.232;43.854;2022-08-01T06:42:38;7.07;;;2.60;;
73452;SDS011;61687;56.232;43.854;2022-08-01T06:45:09;3.97;;;1.90;;
73452;SDS011;61687;56.232;43.854;2022-08-01T06:47:36;4.07;;;2.08;;
73452;SDS011;61687;56.232;43.854;2022-08-01T06:50:03;5.93;;;2.13;;
73452;SDS011;61687;56.232;43.854;2022-08-01T06:52:30;3.47;;;1.90;;
73452;SDS011;61687;56.232;43.854;2022-08-01T06:54:56;4.00;;;1.80;;
73452;SDS011;61687;56.232;43.854;2022-08-01T06:57:22;5.60;;;2.50;;
73452;SDS011;61687;56.232;43.854;2022-08-01T06:59:48;3.27;;;2.43;;
73452;SDS011;61687;56.232;43.854;2022-08-01T07:02:14;3.20;;;2.00;;
73452;SDS011;61687;56.232;43.854;2022-08-01T07:04:40;3.10;;;2.22;;
73452;SDS011;61687;56.232;43.854;2022-08-01T07:07:06;3.07;;;2.20;;
73452;SDS011;61687;56.232;43.854;2022-08-01T07:09:32;2.92;;;1.85;;
73452;SDS011;61687;56.232;43.854;2022-08-01T07:11:59;3.75;;;2.00;;
73452;SDS011;61687;56.232;43.854;2022-08-01T07:14:25;5.63;;;2.45;;
73452;SDS011;61687;56.232;43.854;2022-08-01T07:16:51;4.22;;;2.13;;
73452;SDS011;61687;56.232;43.854;2022-08-01T07:19:17;4.00;;;2.10;;
73452;SDS011;61687;56.232;43.854;2022-08-01T07:21:43;4.75;;;2.00;;
73452;SDS011;61687;56.232;43.854;2022-08-01T07:24:10;6.25;;;2.50;;
73452;SDS011;61687;56.232;43.854;2022-08-01T07:26:39;8.90;;;2.45;;
73452;SDS011;61687;56.232;43.854;2022-08-01T07:29:06;4.70;;;1.92;;
73452;SDS011;61687;56.232;43.854;2022-08-01T07:31:32;5.53;;;2.20;;
73452;SDS011;61687;56.232;43.854;2022-08-01T07:33:58;5.32;;;2.40;;
73452;SDS011;61687;56.232;43.854;2022-08-01T07:36:24;6.80;;;2.73;;
73452;SDS011;61687;56.232;43.854;2022-08-01T07:38:50;4.63;;;2.40;;
73452;SDS011;61687;56.232;43.854;2022-08-01T07:41:16;5.50;;;2.40;;
73452;SDS011;61687;56.232;43.854;2022-08-01T07:43:42;6.40;;;2.17;;
73452;SDS011;61687;56.232;43.854;2022-08-01T07:46:08;7.10;;;1.93;;
73452;SDS011;61687;56.232;43.854;2022-08-01T07:48:34;7.53;;;2.58;;
73452;SDS011;61687;56.232;43.854;2022-08-01T07:51:00;5.88;;;2.13;;
73452;SDS011;61687;56.232;43.854;2022-08-01T07:53:26;5.65;;;2.42;;
73452;SDS011;61687;56.232;43.854;2022-08-01T07:55:52;4.63;;;2.30;;
73452;SDS011;61687;56.232;43.854;2022-08-01T07:58:17;4.65;;;2.25;;
73452;SDS011;61687;56.232;43.854;2022-08-01T08:00:43;4.22;;;2.28;;
73452;SDS011;61687;56.232;43.854;2022-08-01T08:03:09;6.05;;;2.20;;
73452;SDS011;61687;56.232;43.854;2022-08-01T08:05:35;4.17;;;2.07;;
73452;SDS011;61687;56.232;43.854;2022-08-01T08:08:02;5.32;;;2.30;;
73452;SDS011;61687;56.232;43.854;2022-08-01T08:10:31;3.28;;;2.13;;
73452;SDS011;61687;56.232;43.854;2022-08-01T08:12:57;7.50;;;2.80;;
73452;SDS011;61687;56.232;43.854;2022-08-01T08:15:23;6.57;;;2.60;;
73452;SDS011;61687;56.232;43.854;2022-08-01T08:17:49;3.67;;;2.15;;
73452;SDS011;61687;56.232;43.854;2022-08-01T08:20:15;5.22;;;2.47;;
73452;SDS011;61687;56.232;43.854;2022-08-01T08:22:41;6.77;;;2.80;;
73452;SDS011;61687;56.232;43.854;2022-08-01T08:25:07;8.00;;;2.83;;
73452;SDS011;61687;56.232;43.854;2022-08-01T08:27:34;5.80;;;2.85;;
73452;SDS011;61687;56.232;43.854;2022-08-01T08:30:02;4.63;;;2.63;;
73452;SDS011;61687;56.232;43.854;2022-08-01T08:32:31;3.95;;;2.47;;
73452;SDS011;61687;56.232;43.854;2022-08-01T08:34:56;7.30;;;2.83;;
73452;SDS011;61687;56.232;43.854;2022-08-01T08:37:22;6.47;;;2.40;;
73452;SDS011;61687;56.232;43.854;2022-08-01T08:39:48;6.03;;;2.58;;
73452;SDS011;61687;56.232;43.854;2022-08-01T08:42:14;4.00;;;2.45;;
73452;SDS011;61687;56.232;43.854;2022-08-01T08:44:40;5.93;;;2.67;;
73452;SDS011;61687;56.232;43.854;2022-08-01T08:47:07;6.32;;;2.38;;
73452;SDS011;61687;56.232;43.854;2022-08-01T08:49:36;3.97;;;2.33;;
73452;SDS011;61687;56.232;43.854;2022-08-01T08:52:02;5.65;;;2.65;;
73452;SDS011;61687;56.232;43.854;2022-08-01T08:54:30;12.73;;;2.63;;
73452;SDS011;61687;56.232;43.854;2022-08-01T08:56:58;6.32;;;2.45;;
73452;SDS011;61687;56.232;43.854;2022-08-01T08:59:25;4.35;;;2.25;;
73452;SDS011;61687;56.232;43.854;2022-08-01T09:01:51;3.50;;;2.00;;
73452;SDS011;61687;56.232;43.854;2022-08-01T09:04:17;5.85;;;2.20;;
73452;SDS011;61687;56.232;43.854;2022-08-01T09:06:46;3.67;;;2.10;;
73452;SDS011;61687;56.232;43.854;2022-08-01T09:09:12;5.05;;;2.35;;
73452;SDS011;61687;56.232;43.854;2022-08-01T09:11:38;4.82;;;2.45;;
73452;SDS011;61687;56.232;43.854;2022-08-01T09:14:14;3.50;;;2.63;;
73452;SDS011;61687;56.232;43.854;2022-08-01T09:16:58;4.15;;;2.10;;
73452;SDS011;61687;56.232;43.854;2022-08-01T09:19:25;5.88;;;2.50;;
73452;SDS011;61687;56.232;43.854;2022-08-01T09:22:02;4.85;;;2.30;;
73452;SDS011;61687;56.232;43.854;2022-08-01T09:24:30;6.38;;;2.65;;
73452;SDS011;61687;56.232;43.854;2022-08-01T09:26:57;4.90;;;2.50;;
73452;SDS011;61687;56.232;43.854;2022-08-01T09:29:25;3.60;;;2.15;;
73452;SDS011;61687;56.232;43.854;2022-08-01T09:31:53;4.57;;;2.25;;
73452;SDS011;61687;56.232;43.854;2022-08-01T09:34:25;4.28;;;1.67;;
73452;SDS011;61687;56.232;43.854;2022-08-01T09:36:56;5.18;;;2.20;;
73452;SDS011;61687;56.232;43.854;2022-08-01T09:39:31;4.60;;;1.90;;
73452;SDS011;61687;56.232;43.854;2022-08-01T09:42:01;3.63;;;1.85;;
73452;SDS011;61687;56.232;43.854;2022-08-01T09:44:44;10.13;;;2.58;;
73452;SDS011;61687;56.232;43.854;2022-08-01T09:47:11;4.97;;;2.10;;
73452;SDS011;61687;56.232;43.854;2022-08-01T09:49:38;4.18;;;2.20;;
73452;SDS011;61687;56.232;43.854;2022-08-01T09:52:16;3.57;;;1.57;;
73452;SDS011;61687;56.232;43.854;2022-08-01T09:54:44;5.35;;;1.88;;
73452;SDS011;61687;56.232;43.854;2022-08-01T09:57:18;22.17;;;3.00;;
73452;SDS011;61687;56.232;43.854;2022-08-01T09:59:46;7.97;;;1.98;;
73452;SDS011;61687;56.232;43.854;2022-08-01T10:02:25;3.08;;;2.10;;
73452;SDS011;61687;56.232;43.854;2022-08-01T10:04:52;6.87;;;2.07;;
73452;SDS011;61687;56.232;43.854;2022-08-01T10:07:19;5.50;;;2.35;;
73452;SDS011;61687;56.232;43.854;2022-08-01T10:09:45;3.67;;;2.10;;
73452;SDS011;61687;56.232;43.854;2022-08-01T10:12:13;4.68;;;2.17;;
73452;SDS011;61687;56.232;43.854;2022-08-01T10:14:42;5.30;;;2.72;;
73452;SDS011;61687;56.232;43.854;2022-08-01T10:17:12;5.73;;;2.07;;
73452;SDS011;61687;56.232;43.854;2022-08-01T10:19:40;3.70;;;2.20;;
73452;SDS011;61687;56.232;43.854;2022-08-01T10:22:09;5.40;;;1.73;;
73452;SDS011;61687;56.232;43.854;2022-08-01T10:24:37;5.05;;;2.05;;
73452;SDS011;61687;56.232;43.854;2022-08-01T10:27:08;3.67;;;1.85;;
73452;SDS011;61687;56.232;43.854;2022-08-01T10:29:57;3.70;;;1.80;;
73452;SDS011;61687;56.232;43.854;2022-08-01T10:32:25;3.42;;;1.88;;
73452;SDS011;61687;56.232;43.854;2022-08-01T10:34:52;3.92;;;1.67;;
73452;SDS011;61687;56.232;43.854;2022-08-01T10:37:18;5.53;;;2.13;;
73452;SDS011;61687;56.232;43.854;2022-08-01T10:39:44;4.13;;;1.92;;
73452;SDS011;61687;56.232;43.854;2022-08-01T10:42:11;7.03;;;1.80;;
73452;SDS011;61687;56.232;43.854;2022-08-01T10:44:37;3.20;;;1.70;;
73452;SDS011;61687;56.232;43.854;2022-08-01T10:47:12;9.68;;;2.40;;
73452;SDS011;61687;56.232;43.854;2022-08-01T10:49:47;4.90;;;2.35;;
73452;SDS011;61687;56.232;43.854;2022-08-01T10:52:19;3.87;;;1.83;;
73452;SDS011;61687;56.232;43.854;2022-08-01T10:54:46;5.60;;;1.88;;
73452;SDS011;61687;56.232;43.854;2022-08-01T10:57:12;3.88;;;1.90;;
73452;SDS011;61687;56.232;43.854;2022-08-01T10:59:49;2.78;;;1.50;;
73452;SDS011;61687;56.232;43.854;2022-08-01T11:02:34;4.32;;;2.05;;
73452;SDS011;61687;56.232;43.854;2022-08-01T11:05:12;3.63;;;2.03;;
73452;SDS011;61687;56.232;43.854;2022-08-01T11:07:52;3.55;;;1.85;;
73452;SDS011;61687;56.232;43.854;2022-08-01T11:13:04;4.72;;;2.00;;
73452;SDS011;61687;56.232;43.854;2022-08-01T11:15:33;3.13;;;1.90;;
73452;SDS011;61687;56.232;43.854;2022-08-01T11:18:04;5.00;;;1.80;;
73452;SDS011;61687;56.232;43.854;2022-08-01T11:20:58;4.57;;;2.00;;
73452;SDS011;61687;56.232;43.854;2022-08-01T11:23:29;4.00;;;2.00;;
73452;SDS011;61687;56.232;43.854;2022-08-01T11:28:28;3.42;;;1.90;;
73452;SDS011;61687;56.232;43.854;2022-08-01T11:38:43;3.55;;;2.00;;
73452;SDS011;61687;56.232;43.854;2022-08-01T11:41:22;4.78;;;2.30;;
73452;SDS011;61687;56.232;43.854;2022-08-01T11:43:56;3.80;;;2.20;;
73452;SDS011;61687;56.232;43.854;2022-08-01T11:51:56;4.88;;;2.55;;
73452;SDS011;61687;56.232;43.854;2022-08-01T11:54:28;4.53;;;2.22;;
73452;SDS011;61687;56.232;43.854;2022-08-01T11:56:57;4.63;;;2.30;;
73452;SDS011;61687;56.232;43.854;2022-08-01T11:59:24;6.13;;;2.40;;
73452;SDS011;61687;56.232;43.854;2022-08-01T12:01:51;4.55;;;1.98;;
73452;SDS011;61687;56.232;43.854;2022-08-01T12:04:18;5.40;;;2.10;;
73452;SDS011;61687;56.232;43.854;2022-08-01T12:06:44;5.50;;;1.83;;
73452;SDS011;61687;56.232;43.854;2022-08-01T12:09:21;6.43;;;2.00;;
73452;SDS011;61687;56.232;43.854;2022-08-01T12:11:48;12.32;;;2.00;;
73452;SDS011;61687;56.232;43.854;2022-08-01T12:14:18;4.03;;;2.05;;
73452;SDS011;61687;56.232;43.854;2022-08-01T12:16:49;4.55;;;1.75;;
73452;SDS011;61687;56.232;43.854;2022-08-01T12:19:23;4.30;;;2.35;;
73452;SDS011;61687;56.232;43.854;2022-08-01T12:24:33;5.07;;;1.90;;
73452;SDS011;61687;56.232;43.854;2022-08-01T12:26:59;2.92;;;2.08;;
73452;SDS011;61687;56.232;43.854;2022-08-01T12:29:36;5.75;;;2.30;;
73452;SDS011;61687;56.232;43.854;2022-08-01T12:32:13;4.40;;;2.00;;
73452;SDS011;61687;56.232;43.854;2022-08-01T12:34:48;4.10;;;1.73;;
73452;SDS011;61687;56.232;43.854;2022-08-01T12:37:14;4.85;;;1.88;;
73452;SDS011;61687;56.232;43.854;2022-08-01T12:39:40;4.63;;;2.10;;
73452;SDS011;61687;56.232;43.854;2022-08-01T12:42:07;7.68;;;2.20;;
73452;SDS011;61687;56.232;43.854;2022-08-01T12:44:35;6.63;;;2.72;;
73452;SDS011;61687;56.232;43.854;2022-08-01T12:47:03;3.73;;;2.10;;
73452;SDS011;61687;56.232;43.854;2022-08-01T12:49:32;4.28;;;2.10;;
73452;SDS011;61687;56.232;43.854;2022-08-01T12:51:58;7.75;;;3.13;;
73452;SDS011;61687;56.232;43.854;2022-08-01T12:54:24;4.88;;;2.72;;
73452;SDS011;61687;56.232;43.854;2022-08-01T12:56:51;4.68;;;3.00;;
73452;SDS011;61687;56.232;43.854;2022-08-01T12:59:21;7.00;;;3.13;;
73452;SDS011;61687;56.232;43.854;2022-08-01T13:01:51;4.82;;;2.90;;
73452;SDS011;61687;56.232;43.854;2022-08-01T13:04:20;3.80;;;2.45;;
73452;SDS011;61687;56.232;43.854;2022-08-01T13:06:48;5.15;;;2.28;;
73452;SDS011;61687;56.232;43.854;2022-08-01T13:09:18;5.40;;;2.60;;
73452;SDS011;61687;56.232;43.854;2022-08-01T13:11:44;5.30;;;2.10;;
73452;SDS011;61687;56.232;43.854;2022-08-01T13:14:28;5.60;;;2.30;;
73452;SDS011;61687;56.232;43.854;2022-08-01T13:16:54;4.13;;;1.83;;
73452;SDS011;61687;56.232;43.854;2022-08-01T13:19:20;3.42;;;2.30;;
73452;SDS011;61687;56.232;43.854;2022-08-01T13:21:53;4.97;;;2.22;;
73452;SDS011;61687;56.232;43.854;2022-08-01T13:24:28;4.40;;;2.23;;
73452;SDS011;61687;56.232;43.854;2022-08-01T13:26:56;3.80;;;1.98;;
73452;SDS011;61687;56.232;43.854;2022-08-01T13:29:34;4.13;;;2.10;;
73452;SDS011;61687;56.232;43.854;2022-08-01T13:32:16;5.07;;;2.05;;
73452;SDS011;61687;56.232;43.854;2022-08-01T13:34:43;4.75;;;2.60;;
73452;SDS011;61687;56.232;43.854;2022-08-01T13:37:09;4.20;;;2.07;;
73452;SDS011;61687;56.232;43.854;2022-08-01T13:39:35;3.92;;;2.17;;
73452;SDS011;61687;56.232;43.854;2022-08-01T13:42:08;5.82;;;2.40;;
73452;SDS011;61687;56.232;43.854;2022-08-01T13:44:38;4.28;;;2.40;;
73452;SDS011;61687;56.232;43.854;2022-08-01T13:47:04;3.10;;;1.90;;
73452;SDS011;61687;56.232;43.854;2022-08-01T13:49:31;7.88;;;2.42;;
73452;SDS011;61687;56.232;43.854;2022-08-01T13:51:57;8.27;;;2.20;;
73452;SDS011;61687;56.232;43.854;2022-08-01T13:54:24;4.43;;;2.42;;
73452;SDS011;61687;56.232;43.854;2022-08-01T13:56:51;4.85;;;1.98;;
73452;SDS011;61687;56.232;43.854;2022-08-01T13:59:17;3.13;;;1.70;;
73452;SDS011;61687;56.232;43.854;2022-08-01T14:01:43;6.60;;;1.90;;
73452;SDS011;61687;56.232;43.854;2022-08-01T14:04:09;4.78;;;1.90;;
73452;SDS011;61687;56.232;43.854;2022-08-01T14:06:35;5.97;;;1.97;;
73452;SDS011;61687;56.232;43.854;2022-08-01T14:09:02;5.88;;;2.40;;
73452;SDS011;61687;56.232;43.854;2022-08-01T14:11:29;7.57;;;1.70;;
73452;SDS011;61687;56.232;43.854;2022-08-01T14:13:55;3.35;;;2.00;;
73452;SDS011;61687;56.232;43.854;2022-08-01T14:16:21;4.33;;;1.80;;
73452;SDS011;61687;56.232;43.854;2022-08-01T14:18:47;4.00;;;1.83;;
73452;SDS011;61687;56.232;43.854;2022-08-01T14:21:13;4.20;;;2.00;;
73452;SDS011;61687;56.232;43.854;2022-08-01T14:23:40;4.32;;;1.60;;
73452;SDS011;61687;56.232;43.854;2022-08-01T14:26:08;5.47;;;1.80;;
73452;SDS011;61687;56.232;43.854;2022-08-01T14:28:35;6.77;;;1.80;;
73452;SDS011;61687;56.232;43.854;2022-08-01T14:31:02;5.80;;;2.05;;
73452;SDS011;61687;56.232;43.854;2022-08-01T14:33:28;4.32;;;2.10;;
73452;SDS011;61687;56.232;43.854;2022-08-01T14:35:54;4.43;;;1.90;;
73452;SDS011;61687;56.232;43.854;2022-08-01T14:38:20;3.97;;;2.17;;
73452;SDS011;61687;56.232;43.854;2022-08-01T14:40:46;5.03;;;2.30;;
73452;SDS011;61687;56.232;43.854;2022-08-01T14:43:19;3.60;;;2.33;;
73452;SDS011;61687;56.232;43.854;2022-08-01T14:45:45;4.10;;;2.03;;
73452;SDS011;61687;56.232;43.854;2022-08-01T14:48:15;6.68;;;2.90;;
73452;SDS011;61687;56.232;43.854;2022-08-01T14:50:42;4.22;;;2.45;;
73452;SDS011;61687;56.232;43.854;2022-08-01T14:53:08;4.93;;;2.53;;
73452;SDS011;61687;56.232;43.854;2022-08-01T14:55:34;7.22;;;2.95;;
73452;SDS011;61687;56.232;43.854;2022-08-01T14:58:00;5.43;;;2.13;;
73452;SDS011;61687;56.232;43.854;2022-08-01T15:00:26;7.40;;;2.23;;
73452;SDS011;61687;56.232;43.854;2022-08-01T15:02:52;4.60;;;1.95;;
73452;SDS011;61687;56.232;43.854;2022-08-01T15:05:17;3.28;;;1.90;;